Time;durP1;ratioP1;P1;durP2;ratioP2;P2;SDS_P1;SDS_P2;PMS_P1;PMS_P2;Temp;Humidity;BMP_temperature;BMP_pressure;BME280_temperature;BME280_humidity;BME280_pressure;Samples;Min_cycle;Max_cycle;Signal;HPM_P1;HPM_P2
2024/02/11 00:02:18;;;;;;;21.35;16.95;;;11.20;99.90;;;;;;4965727;28;20196;-89
2024/02/11 00:04:45;;;;;;;23.30;17.77;;;11.30;99.90;;;;;;4963195;28;20171;-89
2024/02/11 00:07:11;;;;;;;19.58;16.48;;;11.50;99.90;;;;;;4963288;28;20219;-89
2024/02/11 00:09:37;;;;;;;20.23;17.08;;;11.20;99.90;;;;;;4961351;28;20209;-89
2024/02/11 00:12:04;;;;;;;22.00;16.80;;;11.30;99.90;;;;;;4961655;28;20551;-89
2024/02/11 00:14:29;;;;;;;19.98;17.08;;;11.40;99.90;;;;;;4961382;28;20184;-89
2024/02/11 00:16:59;;;;;;;19.83;17.30;;;11.10;99.90;;;;;;4959537;28;20278;-89
2024/02/11 00:19:30;;;;;;;17.60;15.70;;;11.40;99.90;;;;;;4959681;28;21425;-89
2024/02/11 00:21:55;;;;;;;20.77;16.70;;;11.00;99.90;;;;;;4962136;28;20215;-88
2024/02/11 00:24:23;;;;;;;20.93;16.00;;;11.00;99.90;;;;;;4961351;28;20177;-89
2024/02/11 00:26:49;;;;;;;21.08;17.63;;;11.30;99.90;;;;;;4960453;28;20215;-89
2024/02/11 00:29:14;;;;;;;17.70;15.47;;;10.80;99.90;;;;;;4960797;28;20207;-89
2024/02/11 00:31:40;;;;;;;20.20;18.00;;;11.20;99.90;;;;;;4961472;28;20183;-89
2024/02/11 00:34:05;;;;;;;19.53;17.43;;;11.30;99.90;;;;;;4951687;28;20193;-89
2024/02/11 00:36:33;;;;;;;20.53;18.03;;;11.00;99.90;;;;;;4939544;29;20232;-89
2024/02/11 00:38:59;;;;;;;22.15;17.90;;;10.70;99.90;;;;;;4934037;28;20194;-89
2024/02/11 00:41:24;;;;;;;20.00;17.10;;;11.00;99.90;;;;;;4935362;28;20186;-89
2024/02/11 00:43:50;;;;;;;20.07;16.90;;;11.30;99.90;;;;;;4936460;28;20687;-89
2024/02/11 00:46:16;;;;;;;23.47;17.73;;;10.80;99.90;;;;;;4941785;29;20207;-89
2024/02/11 00:48:44;;;;;;;21.98;17.55;;;11.00;99.90;;;;;;4939221;29;20386;-89
2024/02/11 00:51:10;;;;;;;20.35;17.20;;;11.00;99.90;;;;;;4937012;29;20238;-89
2024/02/11 00:53:36;;;;;;;20.83;16.27;;;11.10;99.90;;;;;;4934325;29;20188;-89
2024/02/11 00:56:02;;;;;;;19.10;15.67;;;13.40;99.90;;;;;;4937112;28;20211;-89
2024/02/11 00:58:27;;;;;;;19.33;16.17;;;11.20;99.90;;;;;;4938342;28;20187;-89
2024/02/11 01:00:53;;;;;;;18.60;16.63;;;11.40;99.90;;;;;;4936451;28;20560;-89
2024/02/11 01:03:18;;;;;;;19.13;15.80;;;11.30;99.90;;;;;;4948031;28;20983;-89
2024/02/11 01:05:44;;;;;;;20.37;17.87;;;10.80;99.90;;;;;;4938033;28;20203;-89
2024/02/11 01:08:12;;;;;;;17.97;16.07;;;11.00;99.90;;;;;;4952553;28;20240;-89
2024/02/11 01:10:38;;;;;;;22.00;16.92;;;10.90;99.90;;;;;;4940132;29;20760;-89
2024/02/11 01:13:04;;;;;;;19.70;15.97;;;11.20;99.90;;;;;;4952944;28;20199;-89
2024/02/11 01:15:30;;;;;;;19.27;16.65;;;10.70;99.90;;;;;;4949734;28;20725;-89
2024/02/11 01:17:56;;;;;;;19.30;16.23;;;10.80;99.90;;;;;;4936113;28;20249;-89
2024/02/11 01:20:21;;;;;;;24.20;21.20;;;10.90;99.90;;;;;;4935710;28;20191;-88
2024/02/11 01:22:47;;;;;;;21.27;18.63;;;10.70;99.90;;;;;;4937651;28;20194;-89
2024/02/11 01:25:20;;;;;;;20.88;17.20;;;10.70;99.90;;;;;;4941411;28;20214;-89
2024/02/11 01:27:46;;;;;;;19.17;16.88;;;10.60;99.90;;;;;;4935754;28;20282;-89
2024/02/11 01:30:13;;;;;;;20.88;17.95;;;10.60;99.90;;;;;;4937034;29;20197;-89
2024/02/11 01:32:38;;;;;;;21.40;18.35;;;10.50;99.90;;;;;;4937225;28;20191;-89
2024/02/11 01:35:09;;;;;;;21.37;18.17;;;10.90;99.90;;;;;;4940292;28;20253;-89
2024/02/11 01:37:37;;;;;;;21.50;17.45;;;10.40;99.90;;;;;;4936275;29;20208;-89
2024/02/11 01:40:03;;;;;;;20.05;17.23;;;10.70;99.90;;;;;;4934664;28;20249;-89
2024/02/11 01:42:28;;;;;;;21.33;17.23;;;10.40;99.90;;;;;;4937091;28;20219;-89
2024/02/11 01:44:55;;;;;;;19.20;16.90;;;10.80;99.90;;;;;;4946127;28;20493;-89
2024/02/11 01:47:20;;;;;;;20.45;17.13;;;10.70;99.90;;;;;;4953579;28;20277;-89
2024/02/11 01:49:47;;;;;;;20.53;18.33;;;11.20;99.90;;;;;;4945606;28;20189;-89
2024/02/11 01:52:14;;;;;;;21.83;18.15;;;11.10;99.90;;;;;;4942214;29;20191;-89
2024/02/11 01:54:41;;;;;;;21.70;18.02;;;10.70;99.90;;;;;;4946008;28;20182;-89
2024/02/11 01:57:07;;;;;;;21.50;17.88;;;10.60;99.90;;;;;;4945250;28;20742;-89
2024/02/11 01:59:38;;;;;;;20.37;17.13;;;11.00;99.90;;;;;;4956902;28;20207;-89
2024/02/11 02:02:09;;;;;;;22.27;17.85;;;10.60;99.90;;;;;;4963290;28;20178;-89
2024/02/11 02:04:39;;;;;;;18.92;16.30;;;10.70;99.90;;;;;;4963034;28;20249;-89
2024/02/11 02:07:05;;;;;;;19.88;16.88;;;10.60;99.90;;;;;;4942549;28;20286;-89
2024/02/11 02:09:33;;;;;;;22.37;17.70;;;11.00;99.90;;;;;;4945438;29;20269;-89
2024/02/11 02:12:02;;;;;;;19.33;17.02;;;10.70;99.90;;;;;;4944143;28;20187;-89
2024/02/11 02:14:28;;;;;;;20.73;18.27;;;10.50;99.90;;;;;;4942195;28;20599;-89
2024/02/11 02:16:54;;;;;;;20.85;16.17;;;11.20;99.90;;;;;;4939768;28;20226;-89
2024/02/11 02:19:20;;;;;;;24.30;17.53;;;10.40;99.90;;;;;;4941477;29;20190;-89
2024/02/11 02:21:54;;;;;;;23.98;17.63;;;10.40;99.90;;;;;;4941430;29;20438;-89
2024/02/11 02:24:20;;;;;;;20.70;17.30;;;10.30;99.90;;;;;;4941855;29;20615;-89
2024/02/11 02:26:46;;;;;;;23.52;18.48;;;10.70;99.90;;;;;;4938748;29;20208;-89
2024/02/11 02:29:12;;;;;;;23.92;17.42;;;10.70;99.90;;;;;;4940515;29;20214;-89
2024/02/11 02:31:37;;;;;;;20.53;16.77;;;10.80;99.90;;;;;;4941555;29;20200;-89
2024/02/11 02:34:03;;;;;;;19.70;16.57;;;11.10;99.90;;;;;;4941060;28;20180;-89
2024/02/11 02:36:28;;;;;;;18.23;15.27;;;10.60;99.90;;;;;;4959922;28;20209;-89
2024/02/11 02:38:54;;;;;;;21.80;16.90;;;11.00;99.90;;;;;;4941884;28;20294;-89
2024/02/11 02:41:19;;;;;;;20.40;17.27;;;11.00;99.90;;;;;;4959640;29;20182;-89
2024/02/11 02:43:46;;;;;;;20.73;16.40;;;11.00;99.90;;;;;;4959890;28;20214;-89
2024/02/11 02:46:12;;;;;;;18.73;16.42;;;11.20;99.90;;;;;;4963314;28;20198;-89
2024/02/11 02:48:38;;;;;;;17.92;15.13;;;10.80;99.90;;;;;;4952970;28;20205;-89
2024/02/11 02:51:04;;;;;;;21.07;16.00;;;10.90;99.90;;;;;;4971314;28;20196;-89
2024/02/11 02:53:29;;;;;;;17.17;15.20;;;11.00;99.90;;;;;;4950002;29;20202;-89
2024/02/11 02:55:56;;;;;;;15.60;13.80;;;10.80;99.90;;;;;;4940517;28;20313;-89
2024/02/11 02:58:23;;;;;;;18.25;14.57;;;11.30;99.90;;;;;;4939816;29;20301;-89
2024/02/11 03:00:49;;;;;;;17.25;14.80;;;11.20;99.90;;;;;;4939494;29;20230;-89
2024/02/11 03:03:14;;;;;;;20.77;15.98;;;11.10;99.90;;;;;;4937879;29;20179;-89
2024/02/11 03:05:41;;;;;;;15.73;12.23;;;11.30;99.90;;;;;;4939660;28;20654;-89
2024/02/11 03:08:07;;;;;;;9.30;7.88;;;10.50;99.90;;;;;;4938838;28;20194;-89
2024/02/11 03:10:34;;;;;;;6.37;5.77;;;10.80;99.90;;;;;;4942018;29;20197;-89
2024/02/11 03:13:00;;;;;;;5.05;4.20;;;11.00;99.90;;;;;;4952404;28;20220;-88
2024/02/11 03:15:27;;;;;;;2.38;2.17;;;10.70;99.90;;;;;;4941677;28;20218;-87
2024/02/11 03:17:52;;;;;;;2.33;1.70;;;10.30;99.90;;;;;;4939631;28;20269;-88
2024/02/11 03:20:18;;;;;;;1.37;1.27;;;10.70;99.90;;;;;;4941038;29;20252;-89
2024/02/11 03:22:43;;;;;;;1.43;1.33;;;10.60;99.90;;;;;;4944392;29;20178;-88
2024/02/11 03:25:09;;;;;;;1.10;1.00;;;10.60;99.90;;;;;;4964675;28;20218;-87
2024/02/11 03:27:36;;;;;;;1.23;0.90;;;12.00;99.90;;;;;;4961514;28;20467;-87
2024/02/11 03:30:05;;;;;;;1.05;0.80;;;10.00;99.90;;;;;;4941713;28;20449;-86
2024/02/11 03:32:31;;;;;;;0.90;0.80;;;9.60;99.90;;;;;;4957269;28;20189;-87
2024/02/11 03:34:57;;;;;;;1.30;0.80;;;10.00;99.90;;;;;;4938063;29;20280;-87
2024/02/11 03:37:22;;;;;;;0.67;0.50;;;9.60;99.90;;;;;;4942020;29;20465;-88
2024/02/11 03:39:51;;;;;;;0.90;0.63;;;9.70;99.90;;;;;;4939429;28;20637;-87
2024/02/11 03:42:19;;;;;;;1.85;0.60;;;9.50;99.90;;;;;;4940839;28;20197;-87
2024/02/11 03:44:45;;;;;;;1.00;0.70;;;9.90;99.90;;;;;;4953636;28;20563;-88
2024/02/11 03:47:12;;;;;;;0.67;0.50;;;9.40;99.90;;;;;;4937684;28;20200;-87
2024/02/11 03:49:37;;;;;;;0.85;0.50;;;9.50;99.90;;;;;;4938464;29;20197;-87
2024/02/11 03:52:03;;;;;;;0.70;0.50;;;9.80;99.90;;;;;;4940861;28;20528;-87
2024/02/11 03:54:28;;;;;;;0.60;0.50;;;9.50;99.90;;;;;;4947972;28;20185;-87
2024/02/11 03:56:54;;;;;;;1.10;0.50;;;9.40;99.90;;;;;;4944504;28;20461;-87
2024/02/11 03:59:20;;;;;;;0.60;0.50;;;9.60;99.90;;;;;;4933213;29;20471;-88
2024/02/11 04:01:45;;;;;;;1.47;0.43;;;9.30;99.90;;;;;;4942748;29;20208;-87
2024/02/11 04:04:12;;;;;;;1.07;0.40;;;9.60;99.90;;;;;;4937094;28;20529;-88
2024/02/11 04:06:38;;;;;;;1.10;0.50;;;9.70;99.90;;;;;;4936956;29;20209;-88
2024/02/11 04:09:08;;;;;;;0.50;0.40;;;9.80;99.90;;;;;;4938061;28;20248;-87
2024/02/11 04:11:33;;;;;;;0.60;0.60;;;9.40;99.90;;;;;;4938513;29;21004;-88
2024/02/11 04:13:59;;;;;;;0.60;0.50;;;9.70;99.90;;;;;;4936285;28;20293;-88
2024/02/11 04:16:25;;;;;;;0.70;0.60;;;9.50;99.90;;;;;;4954974;28;20213;-88
2024/02/11 04:18:52;;;;;;;1.23;0.60;;;9.20;99.90;;;;;;4937280;29;20444;-88
2024/02/11 04:21:20;;;;;;;0.60;0.45;;;8.90;99.90;;;;;;4937082;28;20186;-88
2024/02/11 04:23:48;;;;;;;0.82;0.43;;;9.50;99.90;;;;;;4939685;29;20190;-88
2024/02/11 04:26:14;;;;;;;0.73;0.50;;;9.20;99.90;;;;;;4938283;28;20222;-88
2024/02/11 04:28:41;;;;;;;0.50;0.40;;;8.80;99.90;;;;;;4935672;29;20185;-88
2024/02/11 04:31:11;;;;;;;1.80;0.75;;;8.70;99.90;;;;;;4939546;28;20423;-88
2024/02/11 04:33:40;;;;;;;2.35;0.60;;;8.80;99.90;;;;;;4955686;28;20185;-88
2024/02/11 04:36:09;;;;;;;2.05;0.50;;;8.80;99.90;;;;;;4960736;28;20420;-88
2024/02/11 04:38:34;;;;;;;0.60;0.50;;;8.70;99.90;;;;;;4945144;29;20208;-88
2024/02/11 04:41:00;;;;;;;0.70;0.50;;;8.90;99.90;;;;;;4936344;28;20181;-88
2024/02/11 04:43:26;;;;;;;0.80;0.50;;;9.10;99.90;;;;;;4939802;29;20184;-87
2024/02/11 04:45:52;;;;;;;0.60;0.40;;;9.00;99.90;;;;;;4938456;29;20215;-88
2024/02/11 04:48:21;;;;;;;0.70;0.60;;;9.00;99.90;;;;;;4937899;28;20185;-88
2024/02/11 04:50:48;;;;;;;0.60;0.40;;;8.70;99.90;;;;;;4936718;29;20181;-88
2024/02/11 04:53:17;;;;;;;0.60;0.50;;;9.10;99.90;;;;;;4954217;28;20188;-88
2024/02/11 04:55:43;;;;;;;0.60;0.45;;;8.60;99.90;;;;;;4923349;29;20299;-88
2024/02/11 04:58:19;;;;;;;0.60;0.47;;;8.90;99.90;;;;;;4938878;28;20336;-88
2024/02/11 05:00:49;;;;;;;0.60;0.40;;;8.60;99.90;;;;;;4951415;28;20440;-88
2024/02/11 05:03:17;;;;;;;1.75;0.50;;;9.00;99.90;;;;;;4938289;28;20189;-88
2024/02/11 05:05:44;;;;;;;0.70;0.60;;;8.70;99.90;;;;;;4962063;28;20200;-88
2024/02/11 05:08:16;;;;;;;0.98;0.50;;;8.60;99.90;;;;;;4973062;28;20236;-88
2024/02/11 05:10:43;;;;;;;0.80;0.80;;;8.60;99.90;;;;;;4948679;29;20217;-88
2024/02/11 05:13:11;;;;;;;0.60;0.40;;;8.30;99.90;;;;;;4937987;28;20208;-88
2024/02/11 05:15:49;;;;;;;0.65;0.52;;;8.60;99.90;;;;;;4939478;28;20322;-88
2024/02/11 05:18:15;;;;;;;1.15;0.50;;;8.20;99.90;;;;;;4937850;28;20204;-88
2024/02/11 05:20:41;;;;;;;0.73;0.50;;;8.20;99.90;;;;;;4935754;29;20188;-88
2024/02/11 05:23:11;;;;;;;0.60;0.50;;;8.40;99.90;;;;;;4921297;28;20686;-88
2024/02/11 05:25:40;;;;;;;0.60;0.45;;;8.20;99.90;;;;;;4946939;28;20698;-88
2024/02/11 05:28:09;;;;;;;0.70;0.60;;;8.20;99.90;;;;;;4935839;28;20607;-88
2024/02/11 05:30:38;;;;;;;0.50;0.40;;;8.60;99.90;;;;;;4936721;29;20584;-88
2024/02/11 05:33:06;;;;;;;0.60;0.40;;;7.90;99.90;;;;;;4939397;28;20558;-88
2024/02/11 05:35:34;;;;;;;0.60;0.50;;;7.90;99.90;;;;;;4940850;29;20206;-88
2024/02/11 05:38:01;;;;;;;0.50;0.40;;;8.00;99.90;;;;;;4952059;28;20208;-88
2024/02/11 05:40:41;;;;;;;1.98;0.50;;;8.50;99.90;;;;;;4957992;29;20189;-88
2024/02/11 05:43:08;;;;;;;1.05;0.60;;;8.50;99.90;;;;;;4959320;28;20193;-88
2024/02/11 05:45:36;;;;;;;0.70;0.50;;;8.10;99.90;;;;;;4955288;28;20205;-88
2024/02/11 05:48:02;;;;;;;0.60;0.47;;;8.40;99.90;;;;;;4956456;28;20265;-88
2024/02/11 05:50:28;;;;;;;0.60;0.50;;;7.40;99.90;;;;;;4942120;28;20181;-87
2024/02/11 05:52:54;;;;;;;0.83;0.43;;;8.30;99.90;;;;;;4959425;29;20188;-88
2024/02/11 05:55:21;;;;;;;0.60;0.50;;;8.30;99.90;;;;;;4963772;28;20244;-88
2024/02/11 05:57:48;;;;;;;0.80;0.47;;;7.80;99.90;;;;;;4938587;29;20717;-88
2024/02/11 06:00:18;;;;;;;0.60;0.50;;;8.00;99.90;;;;;;4935800;28;20191;-88
2024/02/11 06:02:54;;;;;;;0.60;0.50;;;8.00;99.90;;;;;;4935602;29;20178;-87
2024/02/11 06:05:21;;;;;;;0.65;0.50;;;7.50;99.90;;;;;;4936263;28;20212;-88
2024/02/11 06:07:59;;;;;;;0.55;0.40;;;7.80;99.90;;;;;;4940574;28;20409;-88
2024/02/11 06:10:26;;;;;;;0.63;0.50;;;7.80;99.90;;;;;;4939734;29;20189;-88
2024/02/11 06:12:52;;;;;;;0.60;0.50;;;7.90;99.90;;;;;;4939723;29;20219;-88
2024/02/11 06:15:21;;;;;;;0.80;0.70;;;7.80;99.90;;;;;;4936476;28;20753;-88
2024/02/11 06:17:48;;;;;;;0.70;0.50;;;7.70;99.90;;;;;;4935104;29;20213;-88
2024/02/11 06:20:17;;;;;;;0.70;0.65;;;8.10;99.90;;;;;;4955153;28;20180;-88
2024/02/11 06:22:46;;;;;;;0.70;0.60;;;7.70;99.90;;;;;;4935543;29;20556;-87
2024/02/11 06:25:13;;;;;;;0.75;0.75;;;7.60;99.90;;;;;;4930134;28;20264;-88
2024/02/11 06:27:40;;;;;;;0.80;0.50;;;8.10;99.90;;;;;;4936905;29;20185;-88
2024/02/11 06:30:13;;;;;;;0.65;0.57;;;8.20;99.90;;;;;;4936272;28;20182;-88
2024/02/11 06:32:46;;;;;;;1.25;0.75;;;7.70;99.90;;;;;;4940551;28;20208;-88
2024/02/11 06:35:14;;;;;;;0.80;0.68;;;8.00;99.90;;;;;;4940472;28;20252;-87
2024/02/11 06:37:41;;;;;;;0.80;0.70;;;7.60;99.90;;;;;;4938586;28;20207;-88
2024/02/11 06:40:12;;;;;;;0.80;0.70;;;8.10;99.90;;;;;;4944463;28;20208;-87
2024/02/11 06:42:39;;;;;;;0.90;0.70;;;7.60;99.90;;;;;;4943465;29;20193;-88
2024/02/11 06:45:08;;;;;;;0.70;0.60;;;7.70;99.90;;;;;;4939861;28;20209;-88
2024/02/11 06:47:37;;;;;;;0.80;0.80;;;7.70;99.90;;;;;;4941452;29;20221;-88
2024/02/11 06:50:07;;;;;;;0.95;0.82;;;7.90;99.90;;;;;;4927186;29;20540;-87
2024/02/11 06:52:34;;;;;;;1.00;0.85;;;7.50;99.90;;;;;;4940812;29;20718;-88
2024/02/11 06:55:01;;;;;;;0.98;0.77;;;7.60;99.90;;;;;;4938993;29;20704;-87
2024/02/11 06:57:26;;;;;;;1.92;1.10;;;7.50;99.90;;;;;;4959661;28;20755;-88
2024/02/11 06:59:54;;;;;;;1.57;1.10;;;7.40;99.90;;;;;;4942004;28;20193;-88
2024/02/11 07:02:20;;;;;;;0.80;0.80;;;8.00;99.90;;;;;;4970366;28;20165;-87
2024/02/11 07:04:46;;;;;;;1.00;0.90;;;8.10;99.90;;;;;;4961001;28;20220;-87
2024/02/11 07:07:12;;;;;;;0.80;0.80;;;7.50;99.90;;;;;;4960984;28;20184;-87
2024/02/11 07:09:39;;;;;;;1.10;0.90;;;7.50;99.90;;;;;;4965044;28;20217;-88
2024/02/11 07:12:06;;;;;;;1.20;1.10;;;7.60;99.90;;;;;;4962615;28;20169;-87
2024/02/11 07:14:32;;;;;;;1.80;0.90;;;7.50;99.90;;;;;;4952765;28;20185;-87
2024/02/11 07:17:00;;;;;;;1.27;1.10;;;7.40;99.90;;;;;;4945989;28;20216;-87
2024/02/11 07:19:26;;;;;;;1.17;1.08;;;7.70;99.90;;;;;;4954441;28;20185;-87
2024/02/11 07:21:52;;;;;;;1.23;1.13;;;7.50;99.90;;;;;;4959329;28;20196;-87
2024/02/11 07:24:18;;;;;;;1.33;1.10;;;7.70;99.90;;;;;;4942924;28;20200;-87
2024/02/11 07:26:46;;;;;;;1.27;1.10;;;7.60;99.90;;;;;;4953182;28;20366;-87
2024/02/11 07:29:12;;;;;;;1.35;1.25;;;7.50;99.90;;;;;;4940906;28;20228;-87
2024/02/11 07:31:38;;;;;;;1.63;1.50;;;7.60;99.90;;;;;;4938317;29;20220;-87
2024/02/11 07:34:04;;;;;;;1.42;1.33;;;7.70;99.90;;;;;;4941774;28;20208;-87
2024/02/11 07:36:30;;;;;;;1.93;1.33;;;7.70;99.90;;;;;;4958742;28;20189;-87
2024/02/11 07:38:56;;;;;;;1.63;1.52;;;7.90;99.90;;;;;;4948780;29;21342;-87
2024/02/11 07:41:22;;;;;;;2.20;1.80;;;7.60;99.90;;;;;;4942567;28;20284;-87
2024/02/11 07:43:49;;;;;;;2.15;1.92;;;7.80;99.90;;;;;;4935252;29;20424;-87
2024/02/11 07:46:15;;;;;;;2.25;2.03;;;8.00;99.90;;;;;;4931516;28;20704;-87
2024/02/11 07:48:42;;;;;;;2.35;1.60;;;7.70;99.90;;;;;;4939594;28;20189;-87
2024/02/11 07:51:07;;;;;;;3.08;1.98;;;7.90;99.90;;;;;;4933831;28;20589;-87
2024/02/11 07:53:33;;;;;;;3.43;1.93;;;8.20;99.90;;;;;;4931047;28;20190;-88
2024/02/11 07:56:00;;;;;;;2.00;1.80;;;8.40;99.90;;;;;;4933025;29;20980;-86
2024/02/11 07:58:25;;;;;;;3.42;2.33;;;8.20;99.90;;;;;;4917592;28;20224;-87
2024/02/11 08:00:52;;;;;;;4.50;2.40;;;8.10;99.90;;;;;;4921614;29;20263;-89
2024/02/11 08:03:20;;;;;;;2.42;2.15;;;8.10;99.90;;;;;;4940987;28;20216;-89
2024/02/11 08:05:46;;;;;;;3.25;2.67;;;8.00;99.90;;;;;;4959588;28;20434;-90
2024/02/11 08:08:11;;;;;;;3.47;2.90;;;8.10;99.90;;;;;;4958853;28;20205;-90
2024/02/11 08:10:37;;;;;;;3.70;2.80;;;8.60;99.90;;;;;;4956861;28;20317;-90
2024/02/11 08:13:07;;;;;;;3.50;2.90;;;8.20;99.90;;;;;;4938588;29;20240;-89
2024/02/11 08:15:33;;;;;;;3.15;2.65;;;8.10;99.90;;;;;;4937828;29;20205;-89
2024/02/11 08:18:01;;;;;;;3.40;2.90;;;8.20;99.90;;;;;;4941819;28;20283;-90
2024/02/11 08:20:29;;;;;;;3.15;2.83;;;8.50;99.90;;;;;;4950592;28;20430;-89
2024/02/11 08:22:54;;;;;;;5.18;3.20;;;8.70;99.90;;;;;;4945472;28;20753;-90
2024/02/11 08:25:21;;;;;;;3.20;2.70;;;8.40;99.90;;;;;;4939519;28;20220;-90
2024/02/11 08:27:46;;;;;;;4.80;3.17;;;8.30;99.90;;;;;;4937977;28;20190;-91
2024/02/11 08:30:12;;;;;;;3.93;3.20;;;9.60;99.90;;;;;;4939298;28;20239;-89
2024/02/11 08:35:27;;;;;;;3.75;3.45;;;8.50;99.90;;;;;;5421244;23;22203;-94
2024/02/11 08:37:57;;;;;;;4.18;3.47;;;8.50;99.90;;;;;;4919658;29;20233;-90
2024/02/11 08:40:24;;;;;;;4.70;3.30;;;10.10;99.90;;;;;;4916243;29;20188;-89
2024/02/11 08:43:31;;;;;;;5.30;3.35;;;8.70;99.90;;;;;;4935572;29;20189;-91
2024/02/11 08:56:16;;;;;;;7.63;3.50;;;7.70;99.90;;;;;;4930236;29;20671;-92
2024/02/11 08:59:00;;;;;;;3.20;2.90;;;9.50;99.90;;;;;;4914560;29;20197;-92
2024/02/11 09:01:26;;;;;;;6.35;3.50;;;8.10;99.90;;;;;;4934104;29;20208;-92
2024/02/11 09:03:53;;;;;;;3.73;3.10;;;;;;;;;;4915548;29;20284;-91
2024/02/11 09:06:18;;;;;;;4.63;3.00;;;9.20;99.90;;;;;;4921533;29;20289;-91
2024/02/11 09:08:44;;;;;;;4.73;3.60;;;10.00;99.90;;;;;;4921195;29;20225;-94
2024/02/11 09:11:13;;;;;;;6.03;3.37;;;8.60;99.90;;;;;;4920351;28;20223;-95
2024/02/11 09:13:42;;;;;;;3.20;2.90;;;9.80;99.90;;;;;;5184696;23;20507;-95
2024/02/11 09:21:18;;;;;;;3.05;2.75;;;10.10;99.90;;;;;;4983478;28;20219;-95
2024/02/11 09:23:45;;;;;;;3.33;3.03;;;9.00;99.90;;;;;;4955709;28;20173;-95
2024/02/11 09:26:11;;;;;;;3.38;2.95;;;10.90;99.90;;;;;;4976706;28;20466;-96
2024/02/11 09:28:38;;;;;;;4.67;3.33;;;9.80;99.90;;;;;;4953544;28;20234;-95
2024/02/11 09:31:05;;;;;;;3.30;3.00;;;10.00;99.90;;;;;;4947597;28;20210;-95
2024/02/11 09:33:33;;;;;;;3.20;2.75;;;8.90;99.90;;;;;;4944765;28;20212;-95
2024/02/11 09:35:59;;;;;;;5.38;3.42;;;11.00;99.90;;;;;;4957871;28;20235;-95
2024/02/11 09:38:25;;;;;;;4.55;3.30;;;9.80;99.90;;;;;;4959906;28;20305;-95
2024/02/11 09:40:51;;;;;;;3.50;3.20;;;11.60;99.90;;;;;;4961424;28;20182;-95
2024/02/11 09:43:20;;;;;;;4.30;3.30;;;11.30;99.90;;;;;;4961534;28;20187;-94
2024/02/11 09:45:48;;;;;;;5.85;3.40;;;11.40;99.90;;;;;;4958041;28;20207;-96
2024/02/11 09:48:16;;;;;;;3.35;3.05;;;12.50;99.90;;;;;;4947956;29;20194;-95
2024/02/11 09:50:45;;;;;;;3.83;2.85;;;11.10;99.90;;;;;;4959274;28;20182;-94
2024/02/11 09:53:14;;;;;;;5.60;3.75;;;10.30;99.90;;;;;;4947741;28;20185;-90
2024/02/11 09:55:42;;;;;;;5.38;3.65;;;11.70;99.90;;;;;;4958216;28;20968;-89
2024/02/11 09:58:08;;;;;;;4.38;3.58;;;9.90;99.90;;;;;;4940911;28;20229;-89
2024/02/11 10:00:34;;;;;;;6.53;3.83;;;10.50;99.90;;;;;;4931330;28;20186;-90
2024/02/11 10:03:02;;;;;;;3.42;3.13;;;11.60;99.90;;;;;;4936196;28;20522;-90
2024/02/11 10:05:31;;;;;;;4.85;3.80;;;12.10;99.90;;;;;;4936259;28;20765;-91
2024/02/11 10:08:00;;;;;;;4.70;4.20;;;10.10;99.90;;;;;;4938748;28;20191;-91
2024/02/11 10:10:25;;;;;;;4.43;3.17;;;12.30;99.90;;;;;;4935840;28;20184;-91
2024/02/11 10:12:52;;;;;;;3.63;3.00;;;11.40;99.90;;;;;;4941059;29;20198;-91
2024/02/11 10:15:19;;;;;;;5.60;3.40;;;10.80;99.90;;;;;;4938856;28;20524;-89
2024/02/11 10:17:46;;;;;;;4.82;3.10;;;11.20;99.90;;;;;;4935575;28;20317;-89
2024/02/11 10:20:12;;;;;;;3.85;3.47;;;13.20;99.90;;;;;;4938534;28;20795;-89
2024/02/11 10:22:39;;;;;;;4.95;4.10;;;12.50;99.90;;;;;;4935156;28;20284;-89
2024/02/11 10:25:09;;;;;;;4.32;3.30;;;10.60;99.90;;;;;;4934520;28;20203;-93
2024/02/11 10:27:35;;;;;;;4.78;3.75;;;11.40;99.90;;;;;;4959675;28;20200;-93
2024/02/11 10:30:05;;;;;;;3.78;3.20;;;11.30;99.90;;;;;;4962112;28;20248;-93
2024/02/11 10:32:34;;;;;;;5.55;3.80;;;11.80;99.90;;;;;;4939729;28;20194;-93
2024/02/11 10:35:04;;;;;;;6.75;3.50;;;11.30;99.90;;;;;;4980482;23;20240;-94
2024/02/11 10:37:36;;;;;;;6.85;5.00;;;12.30;99.90;;;;;;4963829;28;20213;-92
2024/02/11 10:40:08;;;;;;;4.57;3.38;;;12.30;99.90;;;;;;4957133;29;20204;-90
2024/02/11 10:42:34;;;;;;;3.90;3.40;;;12.00;99.90;;;;;;4946700;28;20636;-90
2024/02/11 10:44:59;;;;;;;3.40;3.10;;;12.10;99.90;;;;;;4932885;29;20706;-90
2024/02/11 10:47:25;;;;;;;4.13;3.60;;;12.60;99.90;;;;;;4934647;29;20212;-90
2024/02/11 10:49:51;;;;;;;5.70;3.50;;;12.50;99.90;;;;;;4937717;29;20182;-89
2024/02/11 10:52:21;;;;;;;3.40;3.10;;;12.40;99.90;;;;;;4935918;29;20190;-89
2024/02/11 10:54:51;;;;;;;10.50;5.32;;;12.60;99.90;;;;;;4935358;29;20212;-90
2024/02/11 10:57:20;;;;;;;5.30;3.70;;;12.50;99.90;;;;;;4931163;29;20216;-89
2024/02/11 10:59:58;;;;;;;2.95;2.65;;;12.80;99.90;;;;;;4933826;29;20211;-89
2024/02/11 11:02:26;;;;;;;4.47;3.30;;;12.70;99.90;;;;;;4948899;28;20212;-89
2024/02/11 11:04:56;;;;;;;4.65;3.20;;;12.50;99.90;;;;;;4933423;29;20206;-89
2024/02/11 11:07:23;;;;;;;3.40;2.85;;;12.90;99.90;;;;;;4948845;28;20182;-89
2024/02/11 11:09:48;;;;;;;4.63;3.08;;;12.50;99.90;;;;;;4948921;28;20191;-89
2024/02/11 11:12:18;;;;;;;3.20;2.90;;;12.80;99.90;;;;;;4935027;29;20296;-88
2024/02/11 11:14:44;;;;;;;3.90;3.10;;;12.20;99.90;;;;;;4930273;28;20192;-88
2024/02/11 11:17:21;;;;;;;3.38;2.40;;;12.70;99.90;;;;;;4949369;28;20218;-89
2024/02/11 11:19:48;;;;;;;2.83;2.58;;;12.60;99.90;;;;;;4934826;29;20551;-88
2024/02/11 11:22:14;;;;;;;3.25;2.75;;;12.00;99.90;;;;;;4936503;28;21347;-88
2024/02/11 11:24:48;;;;;;;4.47;3.13;;;11.90;99.90;;;;;;4938448;29;20188;-89
2024/02/11 11:27:16;;;;;;;6.65;2.95;;;11.90;99.90;;;;;;4936125;29;20190;-89
2024/02/11 11:29:41;;;;;;;6.97;3.10;;;11.90;99.90;;;;;;4931730;29;20181;-89
2024/02/11 11:32:10;;;;;;;3.23;2.80;;;11.60;99.90;;;;;;4936572;29;20188;-88
2024/02/11 11:34:36;;;;;;;2.78;2.55;;;12.10;99.90;;;;;;4935522;29;20260;-89
2024/02/11 11:37:15;;;;;;;3.37;2.43;;;12.20;99.90;;;;;;4938890;29;20576;-89
2024/02/11 11:39:43;;;;;;;2.78;2.53;;;12.80;99.90;;;;;;4950829;28;20203;-89
2024/02/11 11:42:09;;;;;;;5.10;2.78;;;12.40;99.90;;;;;;4937332;29;20620;-89
2024/02/11 11:44:35;;;;;;;4.13;2.58;;;12.50;99.90;;;;;;4933317;29;20545;-89
2024/02/11 11:47:01;;;;;;;2.10;1.90;;;13.10;99.90;;;;;;4932979;29;20214;-89
2024/02/11 11:49:27;;;;;;;3.77;2.60;;;12.30;99.90;;;;;;4921773;29;20224;-89
2024/02/11 11:51:58;;;;;;;2.60;2.40;;;13.20;99.90;;;;;;4930642;29;20445;-90
2024/02/11 11:54:31;;;;;;;3.10;2.50;;;13.10;99.90;;;;;;4933989;29;20519;-90
2024/02/11 11:57:05;;;;;;;2.22;1.95;;;14.30;99.90;;;;;;4933034;29;20216;-89
2024/02/11 11:59:30;;;;;;;3.17;2.17;;;15.10;97.90;;;;;;4935934;29;20655;-90
2024/02/11 12:01:56;;;;;;;3.10;2.20;;;14.90;96.50;;;;;;4936908;29;20205;-89
2024/02/11 12:04:25;;;;;;;3.83;2.50;;;15.20;96.10;;;;;;4932735;29;20228;-90
2024/02/11 12:06:51;;;;;;;2.33;1.80;;;16.20;96.50;;;;;;4933418;29;20666;-90
2024/02/11 12:09:17;;;;;;;2.28;1.80;;;14.20;96.10;;;;;;4933362;29;20209;-90
2024/02/11 12:11:49;;;;;;;2.00;1.80;;;16.40;98.00;;;;;;4935176;29;20212;-90
2024/02/11 12:14:18;;;;;;;2.47;1.38;;;13.80;96.40;;;;;;4948312;29;20178;-89
2024/02/11 12:16:44;;;;;;;2.28;1.65;;;13.20;95.90;;;;;;4953408;28;20232;-89
2024/02/11 12:19:11;;;;;;;1.80;1.60;;;13.50;96.70;;;;;;4934910;29;20572;-90
2024/02/11 12:21:39;;;;;;;1.90;1.60;;;13.80;97.20;;;;;;4931010;29;20192;-90
2024/02/11 12:24:08;;;;;;;1.70;1.60;;;13.40;97.40;;;;;;4933103;29;20212;-90
2024/02/11 12:26:34;;;;;;;2.40;1.50;;;14.90;97.80;;;;;;4932313;29;20281;-89
2024/02/11 12:29:00;;;;;;;2.95;1.48;;;13.50;97.30;;;;;;4934077;29;20190;-89
2024/02/11 12:31:28;;;;;;;2.73;1.60;;;13.50;96.70;;;;;;4916336;29;20651;-89
2024/02/11 12:33:55;;;;;;;2.17;1.48;;;13.60;96.50;;;;;;4936016;29;20221;-89
2024/02/11 12:36:27;;;;;;;1.85;1.30;;;13.30;96.60;;;;;;4936061;28;20202;-89
2024/02/11 12:38:54;;;;;;;1.50;1.40;;;13.30;96.90;;;;;;4915531;29;20209;-90
2024/02/11 12:41:22;;;;;;;1.75;1.33;;;13.20;97.20;;;;;;4930561;29;20601;-90
2024/02/11 12:43:49;;;;;;;1.60;1.50;;;13.20;97.50;;;;;;4932128;29;20182;-89
2024/02/11 12:46:14;;;;;;;2.08;1.67;;;13.20;97.90;;;;;;4941087;29;20193;-89
2024/02/11 12:48:42;;;;;;;2.33;1.77;;;12.90;98.60;;;;;;4954743;29;20200;-89
2024/02/11 12:51:10;;;;;;;1.98;1.50;;;12.80;99.50;;;;;;4951900;29;20196;-89
2024/02/11 12:53:38;;;;;;;2.20;2.03;;;14.30;99.50;;;;;;4936017;29;20197;-90
2024/02/11 12:56:09;;;;;;;2.25;1.30;;;12.50;98.40;;;;;;4933720;29;20291;-90
2024/02/11 12:58:35;;;;;;;2.00;1.10;;;12.70;98.30;;;;;;4942613;28;20229;-88
2024/02/11 13:01:00;;;;;;;1.20;1.10;;;12.90;98.50;;;;;;4930967;29;20688;-88
2024/02/11 13:03:27;;;;;;;1.63;1.40;;;12.70;98.10;;;;;;4937311;29;20192;-86
2024/02/11 13:05:55;;;;;;;2.95;1.58;;;12.90;98.90;;;;;;4932418;29;20201;-88